Time;durP1;ratioP1;P1;durP2;ratioP2;P2;SDS_P1;SDS_P2;PMS_P1;PMS_P2;Temp;Humidity;BMP_temperature;BMP_pressure;BME280_temperature;BME280_humidity;BME280_pressure;Samples;Min_cycle;Max_cycle;Signal;HPM_P1;HPM_P2
2022/07/13 00:01:30;;;;;;;;;;;;;;;;;;5036264;28;19917;-30
2022/07/13 00:03:56;;;;;;;;;;;;;;;;;;5035751;28;20373;-30
2022/07/13 00:06:22;;;;;;;;;;;;;;;;;;5035887;28;19945;-29
2022/07/13 00:08:48;;;;;;;;;;;;;;;;;;5035797;28;19913;-29
2022/07/13 00:11:14;;;;;;;;;;;;;;;;;;5036043;28;20458;-28
2022/07/13 00:13:40;;;;;;;;;;;;;;;;;;5035661;28;19957;-30
2022/07/13 00:16:06;;;;;;;;;;;;;;;;;;5034759;28;20003;-27
2022/07/13 00:18:32;;;;;;;;;;;;;;;;;;5035871;28;19921;-27
2022/07/13 00:20:58;;;;;;;;;;;;;;;;;;5035604;28;19913;-28
2022/07/13 00:23:24;;;;;;;;;;;;;;;;;;5035492;28;19917;-30
2022/07/13 00:25:50;;;;;;;;;;;;;;;;;;5035841;28;19913;-30
2022/07/13 00:28:16;;;;;;;;;;;;;;;;;;5035754;28;19967;-30
2022/07/13 00:30:42;;;;;;;;;;;;;;;;;;5034576;28;19917;-29
2022/07/13 00:33:08;;;;;;;;;;;;;;;;;;5035356;28;19920;-30
2022/07/13 00:35:34;;;;;;;;;;;;;;;;;;5035400;28;20256;-30
2022/07/13 00:38:00;;;;;;;;;;;;;;;;;;5035620;28;19999;-30
2022/07/13 00:40:26;;;;;;;;;;;;;;;;;;5035327;28;20002;-29
2022/07/13 00:42:52;;;;;;;;;;;;;;;;;;5035152;28;20252;-30
2022/07/13 00:45:18;;;;;;;;;;;;;;;;;;5035574;28;19971;-30
2022/07/13 00:47:44;;;;;;;;;;;;;;;;;;5035481;28;19913;-33
2022/07/13 00:50:10;;;;;;;;;;;;;;;;;;5036038;28;20001;-29
2022/07/13 00:52:36;;;;;;;;;;;;;;;;;;5035262;28;19975;-30
2022/07/13 00:55:02;;;;;;;;;;;;;;;;;;5035133;28;19917;-30
2022/07/13 00:57:28;;;;;;;;;;;;;;;;;;5035110;28;20292;-30
2022/07/13 00:59:54;;;;;;;;;;;;;;;;;;5035658;28;19913;-30
2022/07/13 01:02:20;;;;;;;;;;;;;;;;;;5034896;28;19917;-30
2022/07/13 01:04:46;;;;;;;;;;;;;;;;;;5034861;28;20008;-30
2022/07/13 01:07:12;;;;;;;;;;;;;;;;;;5034986;28;19920;-30
2022/07/13 01:09:38;;;;;;;;;;;;;;;;;;5038781;28;19932;-30
2022/07/13 01:12:05;;;;;;;;;;;;;;;;;;5041574;28;19924;-30
2022/07/13 01:14:31;;;;;;;;;;;;;;;;;;5041480;28;20071;-30
2022/07/13 01:16:57;;;;;;;;;;;;;;;;;;5040536;28;19913;-30
2022/07/13 01:19:23;;;;;;;;;;;;;;;;;;5041810;28;19909;-30
2022/07/13 01:21:49;;;;;;;;;;;;;;;;;;5040476;28;19913;-30
2022/07/13 01:24:15;;;;;;;;;;;;;;;;;;5041395;28;19921;-29
2022/07/13 01:26:41;;;;;;;;;;;;;;;;;;5041472;28;19979;-29
2022/07/13 01:29:07;;;;;;;;;;;;;;;;;;5041982;28;19952;-29
2022/07/13 01:31:33;;;;;;;;;;;;;;;;;;5041726;28;19913;-30
2022/07/13 01:33:59;;;;;;;;;;;;;;;;;;5041269;28;19952;-30
2022/07/13 01:36:25;;;;;;;;;;;;;;;;;;5041354;28;19957;-30
2022/07/13 01:38:51;;;;;;;;;;;;;;;;;;5041382;28;19921;-30
2022/07/13 01:41:17;;;;;;;;;;;;;;;;;;5041288;28;19921;-30
2022/07/13 01:43:43;;;;;;;;;;;;;;;;;;5041163;28;20324;-30
2022/07/13 01:46:09;;;;;;;;;;;;;;;;;;5041246;28;19924;-30
2022/07/13 01:48:35;;;;;;;;;;;;;;;;;;5041284;28;19988;-30
2022/07/13 01:51:01;;;;;;;;;;;;;;;;;;5041277;28;19917;-30
2022/07/13 01:53:27;;;;;;;;;;;;;;;;;;5041133;28;19914;-30
2022/07/13 01:55:53;;;;;;;;;;;;;;;;;;5041050;28;20237;-30
2022/07/13 01:58:19;;;;;;;;;;;;;;;;;;5041184;28;19917;-30
2022/07/13 02:00:45;;;;;;;;;;;;;;;;;;5040197;28;20225;-30
2022/07/13 02:03:11;;;;;;;;;;;;;;;;;;5041406;28;19920;-29
2022/07/13 02:05:37;;;;;;;;;;;;;;;;;;5041409;28;20306;-27
2022/07/13 02:08:03;;;;;;;;;;;;;;;;;;5041029;28;19955;-29
2022/07/13 02:10:35;;;;;;;;;;;;;;;;;;5041100;28;20008;-29
2022/07/13 02:13:01;;;;;;;;;;;;;;;;;;5041151;28;19917;-29
2022/07/13 02:15:27;;;;;;;;;;;;;;;;;;5041305;28;19913;-30
2022/07/13 02:17:53;;;;;;;;;;;;;;;;;;5041025;28;19916;-30
2022/07/13 02:20:19;;;;;;;;;;;;;;;;;;5039449;28;19951;-30
2022/07/13 02:22:45;;;;;;;;;;;;;;;;;;5037630;28;19964;-30
2022/07/13 02:25:11;;;;;;;;;;;;;;;;;;5037774;28;19917;-30
2022/07/13 02:27:37;;;;;;;;;;;;;;;;;;5037771;28;20357;-30
2022/07/13 02:30:03;;;;;;;;;;;;;;;;;;5037738;28;19909;-30
2022/07/13 02:32:29;;;;;;;;;;;;;;;;;;5037616;28;19913;-30
2022/07/13 02:34:55;;;;;;;;;;;;;;;;;;5037644;28;19909;-30
2022/07/13 02:37:21;;;;;;;;;;;;;;;;;;5037886;28;20352;-29
2022/07/13 02:39:47;;;;;;;;;;;;;;;;;;5037522;28;19920;-30
2022/07/13 02:42:13;;;;;;;;;;;;;;;;;;5037356;28;19913;-30
2022/07/13 02:44:39;;;;;;;;;;;;;;;;;;5037760;28;19913;-30
2022/07/13 02:47:05;;;;;;;;;;;;;;;;;;5037433;28;20344;-29
2022/07/13 02:49:31;;;;;;;;;;;;;;;;;;5037904;28;19924;-29
2022/07/13 02:51:57;;;;;;;;;;;;;;;;;;5037332;28;19913;-30
2022/07/13 02:54:23;;;;;;;;;;;;;;;;;;5037544;28;19913;-27
2022/07/13 02:56:49;;;;;;;;;;;;;;;;;;5036221;28;19914;-28
2022/07/13 02:59:16;;;;;;;;;;;;;;;;;;5037144;28;19936;-28
2022/07/13 03:01:41;;;;;;;;;;;;;;;;;;5037290;28;19917;-30
2022/07/13 03:04:07;;;;;;;;;;;;;;;;;;5035943;28;19921;-28
2022/07/13 03:06:34;;;;;;;;;;;;;;;;;;5036181;28;19921;-29
2022/07/13 03:09:00;;;;;;;;;;;;;;;;;;5037057;28;19917;-28
2022/07/13 03:11:26;;;;;;;;;;;;;;;;;;5036897;28;19913;-28
2022/07/13 03:13:52;;;;;;;;;;;;;;;;;;5036786;28;19913;-28
2022/07/13 03:16:18;;;;;;;;;;;;;;;;;;5036835;28;19913;-28
2022/07/13 03:18:44;;;;;;;;;;;;;;;;;;5037035;28;19913;-28
2022/07/13 03:21:10;;;;;;;;;;;;;;;;;;5036779;28;20375;-28
2022/07/13 03:23:36;;;;;;;;;;;;;;;;;;5036891;28;19917;-28
2022/07/13 03:26:02;;;;;;;;;;;;;;;;;;5036702;28;19940;-29
2022/07/13 03:28:28;;;;;;;;;;;;;;;;;;5036897;28;19913;-30
2022/07/13 03:30:54;;;;;;;;;;;;;;;;;;5036629;28;19992;-30
2022/07/13 03:33:20;;;;;;;;;;;;;;;;;;5036142;28;19948;-29
2022/07/13 03:35:46;;;;;;;;;;;;;;;;;;5035539;28;19919;-30
2022/07/13 03:38:12;;;;;;;;;;;;;;;;;;5036385;28;19917;-28
2022/07/13 03:40:38;;;;;;;;;;;;;;;;;;5036360;28;19909;-28
2022/07/13 03:43:04;;;;;;;;;;;;;;;;;;5036174;28;20008;-30
2022/07/13 03:45:30;;;;;;;;;;;;;;;;;;5036589;28;20344;-30
2022/07/13 03:47:56;;;;;;;;;;;;;;;;;;5036191;28;20376;-30
2022/07/13 03:50:22;;;;;;;;;;;;;;;;;;5036190;28;19924;-30
2022/07/13 03:52:48;;;;;;;;;;;;;;;;;;5036203;28;19913;-30
2022/07/13 03:55:14;;;;;;;;;;;;;;;;;;5036058;28;19966;-30
2022/07/13 03:57:40;;;;;;;;;;;;;;;;;;5035059;28;19913;-30
2022/07/13 04:00:07;;;;;;;;;;;;;;;;;;5034942;28;19920;-30
2022/07/13 04:02:33;;;;;;;;;;;;;;;;;;5035926;28;19970;-30
2022/07/13 04:04:59;;;;;;;;;;;;;;;;;;5035569;28;20436;-30
2022/07/13 04:07:28;;;;;;;;;;;;;;;;;;5035965;28;19917;-29
2022/07/13 04:09:54;;;;;;;;;;;;;;;;;;5035970;28;19913;-28
2022/07/13 04:12:20;;;;;;;;;;;;;;;;;;5035686;28;20000;-28
2022/07/13 04:14:46;;;;;;;;;;;;;;;;;;5035693;28;19971;-28
2022/07/13 04:17:12;;;;;;;;;;;;;;;;;;5035659;28;19917;-28
2022/07/13 04:19:38;;;;;;;;;;;;;;;;;;5035872;28;19921;-28
2022/07/13 04:22:04;;;;;;;;;;;;;;;;;;5035934;28;20001;-28
2022/07/13 04:24:30;;;;;;;;;;;;;;;;;;5035421;28;19913;-29
2022/07/13 04:26:56;;;;;;;;;;;;;;;;;;5035400;28;20416;-28
2022/07/13 04:29:22;;;;;;;;;;;;;;;;;;5035389;28;19913;-27
2022/07/13 04:31:48;;;;;;;;;;;;;;;;;;5035364;28;20348;-28
2022/07/13 04:34:14;;;;;;;;;;;;;;;;;;5035495;28;19924;-29
2022/07/13 04:36:40;;;;;;;;;;;;;;;;;;5035659;28;19913;-28
2022/07/13 04:39:06;;;;;;;;;;;;;;;;;;5035802;28;20306;-28
2022/07/13 04:41:32;;;;;;;;;;;;;;;;;;5035210;28;20375;-28
2022/07/13 04:43:58;;;;;;;;;;;;;;;;;;5034370;28;19956;-28
2022/07/13 04:46:25;;;;;;;;;;;;;;;;;;5035346;28;19917;-28
2022/07/13 04:48:51;;;;;;;;;;;;;;;;;;5035361;28;19932;-28
2022/07/13 04:51:17;;;;;;;;;;;;;;;;;;5034944;28;19913;-29
2022/07/13 04:53:43;;;;;;;;;;;;;;;;;;5034893;28;19909;-28
2022/07/13 04:56:09;;;;;;;;;;;;;;;;;;5034969;28;19914;-28
2022/07/13 04:58:35;;;;;;;;;;;;;;;;;;5035012;28;19913;-28
2022/07/13 05:01:01;;;;;;;;;;;;;;;;;;5035017;28;19913;-30
2022/07/13 05:03:27;;;;;;;;;;;;;;;;;;5033785;28;20356;-29
2022/07/13 05:05:53;;;;;;;;;;;;;;;;;;5035202;28;19909;-29
2022/07/13 05:08:19;;;;;;;;;;;;;;;;;;5034917;28;20380;-28
2022/07/13 05:10:46;;;;;;;;;;;;;;;;;;5034895;28;19913;-28
2022/07/13 05:13:12;;;;;;;;;;;;;;;;;;5034788;28;19917;-28
2022/07/13 05:15:38;;;;;;;;;;;;;;;;;;5034817;28;19909;-29
2022/07/13 05:18:04;;;;;;;;;;;;;;;;;;5034727;28;20287;-28
2022/07/13 05:20:30;;;;;;;;;;;;;;;;;;5034706;28;20431;-29
2022/07/13 05:22:56;;;;;;;;;;;;;;;;;;5034503;28;20004;-28
2022/07/13 05:25:22;;;;;;;;;;;;;;;;;;5034637;28;19967;-28
2022/07/13 05:27:48;;;;;;;;;;;;;;;;;;5033619;28;20008;-28
2022/07/13 05:30:14;;;;;;;;;;;;;;;;;;5034721;28;20256;-30
2022/07/13 05:32:40;;;;;;;;;;;;;;;;;;5034634;28;20256;-28
2022/07/13 05:35:06;;;;;;;;;;;;;;;;;;5034489;28;20249;-27
2022/07/13 05:37:32;;;;;;;;;;;;;;;;;;5034800;28;19917;-28
2022/07/13 05:39:58;;;;;;;;;;;;;;;;;;5033518;28;20336;-28
2022/07/13 05:42:25;;;;;;;;;;;;;;;;;;5034983;28;19913;-28
2022/07/13 05:44:52;;;;;;;;;;;;;;;;;;5034592;28;19913;-28
2022/07/13 05:47:18;;;;;;;;;;;;;;;;;;5034773;28;19952;-28
2022/07/13 05:49:44;;;;;;;;;;;;;;;;;;5034603;28;19910;-29
2022/07/13 05:52:10;;;;;;;;;;;;;;;;;;5034538;28;19913;-29
2022/07/13 05:54:36;;;;;;;;;;;;;;;;;;5034342;28;20257;-29
2022/07/13 05:57:02;;;;;;;;;;;;;;;;;;5038231;28;19917;-28
2022/07/13 05:59:28;;;;;;;;;;;;;;;;;;5038455;28;20003;-29
2022/07/13 06:01:54;;;;;;;;;;;;;;;;;;5038134;28;20010;-28
2022/07/13 06:04:20;;;;;;;;;;;;;;;;;;5037877;28;19925;-28
2022/07/13 06:06:46;;;;;;;;;;;;;;;;;;5038093;28;19988;-28
2022/07/13 06:09:12;;;;;;;;;;;;;;;;;;5037961;28;19952;-29
2022/07/13 06:11:39;;;;;;;;;;;;;;;;;;5038031;28;19917;-28
2022/07/13 06:14:05;;;;;;;;;;;;;;;;;;5037878;28;19924;-28
2022/07/13 06:16:31;;;;;;;;;;;;;;;;;;5038214;28;19909;-29
2022/07/13 06:18:57;;;;;;;;;;;;;;;;;;5037816;28;19920;-28
2022/07/13 06:21:23;;;;;;;;;;;;;;;;;;5037852;28;19909;-29
2022/07/13 06:23:49;;;;;;;;;;;;;;;;;;5037590;28;20363;-29
2022/07/13 06:26:15;;;;;;;;;;;;;;;;;;5038221;28;20039;-29
2022/07/13 06:28:41;;;;;;;;;;;;;;;;;;5037634;28;20312;-29
2022/07/13 06:31:07;;;;;;;;;;;;;;;;;;5037942;28;19999;-28
2022/07/13 06:33:35;;;;;;;;;;;;;;;;;;5037530;28;20015;-29
2022/07/13 06:36:01;;;;;;;;;;;;;;;;;;5037712;28;20143;-28
2022/07/13 06:38:27;;;;;;;;;;;;;;;;;;5037391;28;19998;-28
2022/07/13 06:40:53;;;;;;;;;;;;;;;;;;5037813;28;19913;-28
2022/07/13 06:43:19;;;;;;;;;;;;;;;;;;5037129;28;19917;-28
2022/07/13 06:45:45;;;;;;;;;;;;;;;;;;5037180;28;20008;-29
2022/07/13 06:48:11;;;;;;;;;;;;;;;;;;5037657;28;19917;-29
2022/07/13 06:50:38;;;;;;;;;;;;;;;;;;5036211;28;19956;-28
2022/07/13 06:53:04;;;;;;;;;;;;;;;;;;5037134;28;19928;-28
2022/07/13 06:55:30;;;;;;;;;;;;;;;;;;5037616;28;19924;-28
2022/07/13 06:57:56;;;;;;;;;;;;;;;;;;5036971;28;19909;-28
2022/07/13 07:00:22;;;;;;;;;;;;;;;;;;5037228;28;20229;-28
2022/07/13 07:02:48;;;;;;;;;;;;;;;;;;5036836;28;19913;-29
2022/07/13 07:05:14;;;;;;;;;;;;;;;;;;5036843;28;20249;-28
2022/07/13 07:07:40;;;;;;;;;;;;;;;;;;5036491;28;20417;-28
2022/07/13 07:10:06;;;;;;;;;;;;;;;;;;5035887;28;19963;-28
2022/07/13 07:12:32;;;;;;;;;;;;;;;;;;5036685;28;20348;-28
2022/07/13 07:14:58;;;;;;;;;;;;;;;;;;5037405;28;19999;-29
2022/07/13 07:17:25;;;;;;;;;;;;;;;;;;5036954;28;19932;-28
2022/07/13 07:19:51;;;;;;;;;;;;;;;;;;5036754;28;20218;-28
2022/07/13 07:22:17;;;;;;;;;;;;;;;;;;5036540;28;19935;-28
2022/07/13 07:24:43;;;;;;;;;;;;;;;;;;5036584;28;19913;-29
2022/07/13 07:27:10;;;;;;;;;;;;;;;;;;5036350;28;19917;-28
2022/07/13 07:32:27;;;;;;;;;;;;;;;;;;5036422;28;20367;-28
2022/07/13 07:34:53;;;;;;;;;;;;;;;;;;5036319;28;19912;-28
2022/07/13 07:37:20;;;;;;;;;;;;;;;;;;5035182;28;19914;-28
2022/07/13 07:39:46;;;;;;;;;;;;;;;;;;5036294;28;20054;-28
2022/07/13 07:42:12;;;;;;;;;;;;;;;;;;5036145;28;19913;-29
2022/07/13 07:44:38;;;;;;;;;;;;;;;;;;5036086;28;19913;-28
2022/07/13 07:47:04;;;;;;;;;;;;;;;;;;5035923;28;19920;-28
2022/07/13 07:49:30;;;;;;;;;;;;;;;;;;5036111;28;20253;-28
2022/07/13 07:51:56;;;;;;;;;;;;;;;;;;5035782;28;20253;-28
2022/07/13 07:54:22;;;;;;;;;;;;;;;;;;5035950;28;19955;-28
2022/07/13 07:56:48;;;;;;;;;;;;;;;;;;5036011;28;20054;-27
2022/07/13 07:59:16;;;;;;;;;;;;;;;;;;5034735;28;19913;-28
2022/07/13 08:01:49;;;;;;;;;;;;;;;;;;5035702;28;19928;-28
2022/07/13 08:07:07;;;;;;;;;;;;;;;;;;5035743;28;20276;-28
2022/07/13 08:09:33;;;;;;;;;;;;;;;;;;5034510;28;20108;-28
2022/07/13 08:12:00;;;;;;;;;;;;;;;;;;5035653;28;19923;-28
2022/07/13 08:14:27;;;;;;;;;;;;;;;;;;5035294;28;19913;-29
2022/07/13 08:16:53;;;;;;;;;;;;;;;;;;5035132;28;19924;-28
2022/07/13 08:19:19;;;;;;;;;;;;;;;;;;5034244;28;19909;-28
2022/07/13 08:21:45;;;;;;;;;;;;;;;;;;5035098;28;19920;-29
2022/07/13 08:24:11;;;;;;;;;;;;;;;;;;5035098;28;19921;-28
2022/07/13 08:29:28;;;;;;;;;;;;;;;;;;5035213;28;19924;-29
2022/07/13 08:31:54;;;;;;;;;;;;;;;;;;5035021;28;19917;-28
2022/07/13 08:39:50;;;;;;;;;;;;;;;;;;5034976;28;20056;-28
2022/07/13 08:42:17;;;;;;;;;;;;;;;;;;5033849;28;19913;-40
2022/07/13 08:47:38;;;;;;;;;;;;;;;;;;5035244;28;19924;-29
2022/07/13 08:50:06;;;;;;;;;;;;;;;;;;5035105;28;19913;-29
2022/07/13 08:52:41;;;;;;;;;;;;;;;;;;5034989;28;20062;-28
2022/07/13 08:55:08;;;;;;;;;;;;;;;;;;5034805;28;19909;-28
2022/07/13 08:57:34;;;;;;;;;;;;;;;;;;5034734;28;19971;-28
2022/07/13 09:00:00;;;;;;;;;;;;;;;;;;5034709;28;20354;-28
2022/07/13 09:02:26;;;;;;;;;;;;;;;;;;5034584;28;20059;-28
2022/07/13 09:04:52;;;;;;;;;;;;;;;;;;5034312;28;20051;-29
2022/07/13 09:07:18;;;;;;;;;;;;;;;;;;5035023;28;19909;-28
2022/07/13 09:09:44;;;;;;;;;;;;;;;;;;5034861;28;20214;-28
2022/07/13 09:12:11;;;;;;;;;;;;;;;;;;5033559;28;19967;-28
2022/07/13 09:14:37;;;;;;;;;;;;;;;;;;5034950;28;19983;-28
2022/07/13 09:17:03;;;;;;;;;;;;;;;;;;5034557;28;19913;-28
2022/07/13 09:19:29;;;;;;;;;;;;;;;;;;5034867;28;20370;-28
2022/07/13 09:21:55;;;;;;;;;;;;;;;;;;5034342;28;19913;-28
2022/07/13 09:24:21;;;;;;;;;;;;;;;;;;5034044;28;19917;-28
2022/07/13 09:26:47;;;;;;;;;;;;;;;;;;5034326;28;19913;-28
2022/07/13 09:29:13;;;;;;;;;;;;;;;;;;5033242;28;19936;-28
2022/07/13 09:31:44;;;;;;;;;;;;;;;;;;5037704;28;19917;-28
2022/07/13 09:34:13;;;;;;;;;;;;;;;;;;5038477;28;20352;-28
2022/07/13 09:36:40;;;;;;;;;;;;;;;;;;5037565;28;19921;-28
2022/07/13 09:39:09;;;;;;;;;;;;;;;;;;5038207;28;19909;-29
2022/07/13 09:41:36;;;;;;;;;;;;;;;;;;5037011;28;19913;-28
2022/07/13 09:46:46;;;;;;;;;;;;;;;;;;5038169;28;20399;-28
2022/07/13 09:49:13;;;;;;;;;;;;;;;;;;5037982;28;19913;-29
2022/07/13 09:51:40;;;;;;;;;;;;;;;;;;5038006;28;20443;-28
2022/07/13 09:54:06;;;;;;;;;;;;;;;;;;5036863;28;19913;-29
2022/07/13 09:56:32;;;;;;;;;;;;;;;;;;5037879;28;19913;-28
2022/07/13 09:58:59;;;;;;;;;;;;;;;;;;5037786;28;19967;-28
2022/07/13 10:01:25;;;;;;;;;;;;;;;;;;5037753;28;20228;-28
2022/07/13 10:03:51;;;;;;;;;;;;;;;;;;5037402;28;20023;-29
2022/07/13 10:06:20;;;;;;;;;;;;;;;;;;5038076;28;19952;-28
2022/07/13 10:08:45;;;;;;;;;;;;;;;;;;5036683;28;20367;-28
2022/07/13 10:11:12;;;;;;;;;;;;;;;;;;5037728;28;19914;-28
2022/07/13 10:16:33;;;;;;;;;;;;;;;;;;5037859;28;19921;-29
2022/07/13 10:19:03;;;;;;;;;;;;;;;;;;5036231;28;20313;-28
2022/07/13 10:21:29;;;;;;;;;;;;;;;;;;5037600;28;20370;-29
2022/07/13 10:23:57;;;;;;;;;;;;;;;;;;5036395;28;19975;-28
2022/07/13 10:26:24;;;;;;;;;;;;;;;;;;5037745;28;19912;-29
2022/07/13 10:28:50;;;;;;;;;;;;;;;;;;5037355;28;19925;-28
2022/07/13 10:31:16;;;;;;;;;;;;;;;;;;5037493;28;19914;-27
2022/07/13 10:33:42;;;;;;;;;;;;;;;;;;5036311;28;20031;-29
2022/07/13 10:36:09;;;;;;;;;;;;;;;;;;5037524;28;19909;-28
2022/07/13 10:38:35;;;;;;;;;;;;;;;;;;5037253;28;19920;-28
2022/07/13 10:41:05;;;;;;;;;;;;;;;;;;5037032;28;19959;-28
2022/07/13 10:43:38;;;;;;;;;;;;;;;;;;5036136;28;19970;-29
2022/07/13 10:48:55;;;;;;;;;;;;;;;;;;5037226;28;19984;-28
2022/07/13 10:51:22;;;;;;;;;;;;;;;;;;5037037;28;19917;-29
2022/07/13 10:53:55;;;;;;;;;;;;;;;;;;5036944;28;20248;-30
2022/07/13 10:56:21;;;;;;;;;;;;;;;;;;5037351;28;19913;-29
2022/07/13 10:58:47;;;;;;;;;;;;;;;;;;5037161;28;19913;-28
2022/07/13 11:04:07;;;;;;;;;;;;;;;;;;5036412;28;19939;-28
2022/07/13 11:06:34;;;;;;;;;;;;;;;;;;5036875;28;19913;-28
2022/07/13 11:09:06;;;;;;;;;;;;;;;;;;5035817;28;19916;-29
2022/07/13 11:11:37;;;;;;;;;;;;;;;;;;5037082;28;19909;-29
2022/07/13 11:14:05;;;;;;;;;;;;;;;;;;5036484;28;20350;-28
2022/07/13 11:16:37;;;;;;;;;;;;;;;;;;5036648;28;19924;-29
2022/07/13 11:27:25;;;;;;;;;;;;;;;;;;5036049;28;20359;-28
2022/07/13 11:29:51;;;;;;;;;;;;;;;;;;5036382;28;20000;-28
2022/07/13 11:32:17;;;;;;;;;;;;;;;;;;5036208;28;20340;-28
2022/07/13 11:34:44;;;;;;;;;;;;;;;;;;5036389;28;19935;-28
2022/07/13 11:37:10;;;;;;;;;;;;;;;;;;5036229;28;19920;-29
2022/07/13 11:39:36;;;;;;;;;;;;;;;;;;5036066;28;19960;-28
2022/07/13 11:42:02;;;;;;;;;;;;;;;;;;5036032;28;19924;-28
2022/07/13 11:44:28;;;;;;;;;;;;;;;;;;5036180;28;20244;-28
2022/07/13 11:46:54;;;;;;;;;;;;;;;;;;5036168;28;20335;-29
2022/07/13 11:49:20;;;;;;;;;;;;;;;;;;5035930;28;19920;-27
2022/07/13 11:51:47;;;;;;;;;;;;;;;;;;5034850;28;19956;-28
2022/07/13 11:54:13;;;;;;;;;;;;;;;;;;5035549;28;19967;-28
2022/07/13 11:56:39;;;;;;;;;;;;;;;;;;5035833;28;19910;-28
2022/07/13 11:59:05;;;;;;;;;;;;;;;;;;5035737;28;19961;-28
2022/07/13 12:01:31;;;;;;;;;;;;;;;;;;5035937;28;20258;-28
2022/07/13 12:03:57;;;;;;;;;;;;;;;;;;5034333;28;19928;-28
2022/07/13 12:06:25;;;;;;;;;;;;;;;;;;5035485;28;19913;-28
2022/07/13 12:08:52;;;;;;;;;;;;;;;;;;5035450;28;19913;-28
2022/07/13 12:11:18;;;;;;;;;;;;;;;;;;5035795;28;19955;-28
2022/07/13 12:13:44;;;;;;;;;;;;;;;;;;5035460;28;20061;-29
2022/07/13 12:16:10;;;;;;;;;;;;;;;;;;5034526;28;20336;-28
2022/07/13 12:18:37;;;;;;;;;;;;;;;;;;5035371;28;19913;-29
2022/07/13 12:21:03;;;;;;;;;;;;;;;;;;5035495;28;19916;-28
2022/07/13 12:23:31;;;;;;;;;;;;;;;;;;5035185;28;19928;-28
2022/07/13 12:25:58;;;;;;;;;;;;;;;;;;5035322;28;19909;-28
2022/07/13 12:28:24;;;;;;;;;;;;;;;;;;5035354;28;19924;-28
2022/07/13 12:30:50;;;;;;;;;;;;;;;;;;5035285;28;19913;-29
2022/07/13 12:33:18;;;;;;;;;;;;;;;;;;5035213;28;19971;-28
2022/07/13 12:35:44;;;;;;;;;;;;;;;;;;5035176;28;19913;-29
2022/07/13 12:38:11;;;;;;;;;;;;;;;;;;5035452;28;20294;-28
2022/07/13 12:40:40;;;;;;;;;;;;;;;;;;5035177;28;20229;-28
2022/07/13 12:43:06;;;;;;;;;;;;;;;;;;5035106;28;19913;-28
2022/07/13 12:45:32;;;;;;;;;;;;;;;;;;5035217;28;19920;-29
2022/07/13 12:47:58;;;;;;;;;;;;;;;;;;5034919;28;19913;-29
2022/07/13 12:50:24;;;;;;;;;;;;;;;;;;5035033;28;19917;-29
2022/07/13 12:52:51;;;;;;;;;;;;;;;;;;5034783;28;19909;-29
2022/07/13 13:00:58;;;;;;;;;;;;;;;;;;5034790;28;20251;-28
2022/07/13 13:03:24;;;;;;;;;;;;;;;;;;5034642;28;19917;-29
2022/07/13 13:05:50;;;;;;;;;;;;;;;;;;5032953;28;19929;-29
2022/07/13 13:08:17;;;;;;;;;;;;;;;;;;5035356;28;20351;-29
2022/07/13 13:10:43;;;;;;;;;;;;;;;;;;5033811;28;19909;-29
2022/07/13 13:13:09;;;;;;;;;;;;;;;;;;5034499;28;19913;-28
2022/07/13 13:15:36;;;;;;;;;;;;;;;;;;5034586;28;19909;-29
2022/07/13 13:18:04;;;;;;;;;;;;;;;;;;5033457;28;20237;-29
2022/07/13 13:20:30;;;;;;;;;;;;;;;;;;5034494;28;19913;-29
2022/07/13 13:22:56;;;;;;;;;;;;;;;;;;5034448;28;20000;-29
2022/07/13 13:25:22;;;;;;;;;;;;;;;;;;5034882;28;19913;-29
2022/07/13 13:27:48;;;;;;;;;;;;;;;;;;5034630;28;19921;-29
2022/07/13 13:32:59;;;;;;;;;;;;;;;;;;5034525;28;19978;-29
2022/07/13 13:35:26;;;;;;;;;;;;;;;;;;5034557;28;19912;-28
2022/07/13 13:37:54;;;;;;;;;;;;;;;;;;5034622;28;19913;-29
2022/07/13 13:40:20;;;;;;;;;;;;;;;;;;5034299;28;19913;-29
2022/07/13 13:42:47;;;;;;;;;;;;;;;;;;5034233;28;19913;-29
2022/07/13 13:45:13;;;;;;;;;;;;;;;;;;5033754;28;19924;-29
2022/07/13 13:47:39;;;;;;;;;;;;;;;;;;5033427;28;19909;-29
2022/07/13 13:50:06;;;;;;;;;;;;;;;;;;5034462;28;19920;-29
2022/07/13 13:52:32;;;;;;;;;;;;;;;;;;5034346;28;19971;-29
2022/07/13 13:54:58;;;;;;;;;;;;;;;;;;5033468;28;20348;-29
2022/07/13 13:57:24;;;;;;;;;;;;;;;;;;5034618;28;19983;-29
2022/07/13 13:59:50;;;;;;;;;;;;;;;;;;5034417;28;20340;-29
2022/07/13 14:02:16;;;;;;;;;;;;;;;;;;5034477;28;19913;-28
2022/07/13 14:04:43;;;;;;;;;;;;;;;;;;5034016;28;19979;-29
2022/07/13 14:07:09;;;;;;;;;;;;;;;;;;5033304;28;19913;-29
2022/07/13 14:09:35;;;;;;;;;;;;;;;;;;5034218;28;20366;-29
2022/07/13 14:12:01;;;;;;;;;;;;;;;;;;5033088;28;19913;-29
2022/07/13 14:14:27;;;;;;;;;;;;;;;;;;5034179;28;19909;-29
2022/07/13 14:16:55;;;;;;;;;;;;;;;;;;5035295;28;20205;-28
2022/07/13 14:19:23;;;;;;;;;;;;;;;;;;5037835;28;19909;-28
2022/07/13 14:21:49;;;;;;;;;;;;;;;;;;5037715;28;19940;-29
2022/07/13 14:24:15;;;;;;;;;;;;;;;;;;5037869;28;19956;-29
2022/07/13 14:26:41;;;;;;;;;;;;;;;;;;5037715;28;19936;-29
2022/07/13 14:29:07;;;;;;;;;;;;;;;;;;5037585;28;19909;-29
2022/07/13 14:31:33;;;;;;;;;;;;;;;;;;5037616;28;19953;-29
2022/07/13 14:33:59;;;;;;;;;;;;;;;;;;5037395;28;19953;-29
2022/07/13 14:36:26;;;;;;;;;;;;;;;;;;5037416;28;19913;-29
2022/07/13 14:38:52;;;;;;;;;;;;;;;;;;5037356;28;19944;-29
2022/07/13 14:41:18;;;;;;;;;;;;;;;;;;5037320;28;19913;-29
2022/07/13 14:43:44;;;;;;;;;;;;;;;;;;5036243;28;19917;-28
2022/07/13 14:46:11;;;;;;;;;;;;;;;;;;5037273;28;20225;-29
2022/07/13 14:48:38;;;;;;;;;;;;;;;;;;5037261;28;20260;-29
2022/07/13 14:51:04;;;;;;;;;;;;;;;;;;5037461;28;19966;-28
2022/07/13 14:53:30;;;;;;;;;;;;;;;;;;5036277;28;19924;-28
2022/07/13 14:55:56;;;;;;;;;;;;;;;;;;5036015;28;20024;-28
2022/07/13 14:58:22;;;;;;;;;;;;;;;;;;5037222;28;19924;-28
2022/07/13 15:00:48;;;;;;;;;;;;;;;;;;5036861;28;19909;-28
2022/07/13 15:03:14;;;;;;;;;;;;;;;;;;5036673;28;20248;-28
2022/07/13 15:05:40;;;;;;;;;;;;;;;;;;5036640;28;19927;-29
2022/07/13 15:08:06;;;;;;;;;;;;;;;;;;5036725;28;19971;-28
2022/07/13 15:10:33;;;;;;;;;;;;;;;;;;5036721;28;20348;-28
2022/07/13 15:13:00;;;;;;;;;;;;;;;;;;5036656;28;19928;-28
2022/07/13 15:15:26;;;;;;;;;;;;;;;;;;5036725;28;19924;-28
2022/07/13 15:17:52;;;;;;;;;;;;;;;;;;5036726;28;19925;-29
2022/07/13 15:20:18;;;;;;;;;;;;;;;;;;5036987;28;19913;-28
2022/07/13 15:22:44;;;;;;;;;;;;;;;;;;5036151;28;19913;-28
2022/07/13 15:25:11;;;;;;;;;;;;;;;;;;5036962;28;19910;-28
2022/07/13 15:27:38;;;;;;;;;;;;;;;;;;5036126;28;20321;-28
2022/07/13 15:30:04;;;;;;;;;;;;;;;;;;5036825;28;19963;-28
2022/07/13 15:32:30;;;;;;;;;;;;;;;;;;5036397;28;19929;-29
2022/07/13 15:34:56;;;;;;;;;;;;;;;;;;5036435;28;19940;-28
2022/07/13 15:37:22;;;;;;;;;;;;;;;;;;5036337;28;20356;-27
2022/07/13 15:39:48;;;;;;;;;;;;;;;;;;5036492;28;19913;-28
2022/07/13 15:42:14;;;;;;;;;;;;;;;;;;5036347;28;19917;-28
2022/07/13 15:44:40;;;;;;;;;;;;;;;;;;5036077;28;20423;-28
2022/07/13 15:47:06;;;;;;;;;;;;;;;;;;5036086;28;19910;-28
2022/07/13 15:49:32;;;;;;;;;;;;;;;;;;5034887;28;19917;-28
2022/07/13 15:51:58;;;;;;;;;;;;;;;;;;5035890;28;19984;-28
2022/07/13 15:54:24;;;;;;;;;;;;;;;;;;5035732;28;19950;-30
2022/07/13 15:56:50;;;;;;;;;;;;;;;;;;5036093;28;20010;-29
2022/07/13 15:59:17;;;;;;;;;;;;;;;;;;5035689;28;19924;-30
2022/07/13 16:01:43;;;;;;;;;;;;;;;;;;5035752;28;19960;-29
2022/07/13 16:04:10;;;;;;;;;;;;;;;;;;5035325;28;19917;-28
2022/07/13 16:06:36;;;;;;;;;;;;;;;;;;5036084;28;19921;-28
2022/07/13 16:09:02;;;;;;;;;;;;;;;;;;5035826;28;19913;-28
2022/07/13 16:11:28;;;;;;;;;;;;;;;;;;5035541;28;19970;-28
2022/07/13 16:13:54;;;;;;;;;;;;;;;;;;5035424;28;19913;-27
2022/07/13 16:16:20;;;;;;;;;;;;;;;;;;5035674;28;19913;-28
2022/07/13 16:18:46;;;;;;;;;;;;;;;;;;5035568;28;19959;-28
2022/07/13 16:21:12;;;;;;;;;;;;;;;;;;5035719;28;19928;-28
2022/07/13 16:23:38;;;;;;;;;;;;;;;;;;5034108;28;19913;-28
2022/07/13 16:26:04;;;;;;;;;;;;;;;;;;5035409;28;19913;-28
2022/07/13 16:28:30;;;;;;;;;;;;;;;;;;5034236;28;19936;-28
2022/07/13 16:30:57;;;;;;;;;;;;;;;;;;5035395;28;19909;-28
2022/07/13 16:33:23;;;;;;;;;;;;;;;;;;5035264;28;19940;-28
2022/07/13 16:35:49;;;;;;;;;;;;;;;;;;5035134;28;19913;-28
2022/07/13 16:38:15;;;;;;;;;;;;;;;;;;5034488;28;20336;-28
2022/07/13 16:40:41;;;;;;;;;;;;;;;;;;5034261;28;20252;-28
2022/07/13 16:43:07;;;;;;;;;;;;;;;;;;5034847;28;19939;-28
2022/07/13 16:45:33;;;;;;;;;;;;;;;;;;5034973;28;19909;-28
2022/07/13 16:48:01;;;;;;;;;;;;;;;;;;5034132;28;19995;-28
2022/07/13 16:50:27;;;;;;;;;;;;;;;;;;5033908;28;19913;-28
2022/07/13 16:52:54;;;;;;;;;;;;;;;;;;5034782;28;19926;-29
2022/07/13 16:55:21;;;;;;;;;;;;;;;;;;5034825;28;19951;-28
2022/07/13 16:57:47;;;;;;;;;;;;;;;;;;5035027;28;20214;-28
2022/07/13 17:00:14;;;;;;;;;;;;;;;;;;5034705;28;19916;-28
2022/07/13 17:02:40;;;;;;;;;;;;;;;;;;5034701;28;19999;-28
2022/07/13 17:05:07;;;;;;;;;;;;;;;;;;5033616;28;19947;-28
2022/07/13 17:07:34;;;;;;;;;;;;;;;;;;5034878;28;19909;-29
2022/07/13 17:10:00;;;;;;;;;;;;;;;;;;5034724;28;20004;-28
2022/07/13 17:12:26;;;;;;;;;;;;;;;;;;5034715;28;19920;-31
2022/07/13 17:14:52;;;;;;;;;;;;;;;;;;5034893;28;20190;-28
2022/07/13 17:17:18;;;;;;;;;;;;;;;;;;5034507;28;19936;-28
2022/07/13 17:19:44;;;;;;;;;;;;;;;;;;5033667;28;19982;-28
2022/07/13 17:22:10;;;;;;;;;;;;;;;;;;5034585;28;19948;-28
2022/07/13 17:24:37;;;;;;;;;;;;;;;;;;5034700;28;20008;-28